Time;durP1;ratioP1;P1;durP2;ratioP2;P2;SDS_P1;SDS_P2;PMS_P1;PMS_P2;Temp;Humidity;BMP_temperature;BMP_pressure;BME280_temperature;BME280_humidity;BME280_pressure;Samples;Min_cycle;Max_cycle;Signal;HPM_P1;HPM_P2
2021/06/16 00:00:52;;;;;;;15.32;12.57;;;19.00;94.40;;;;;;5060583;28;20057;-89
2021/06/16 00:03:19;;;;;;;18.27;12.90;;;19.00;94.20;;;;;;5061301;28;20077;-89
2021/06/16 00:05:45;;;;;;;13.65;11.70;;;19.00;94.20;;;;;;5059119;28;20039;-89
2021/06/16 00:08:11;;;;;;;13.45;11.57;;;19.00;94.10;;;;;;5040348;28;20136;-89
2021/06/16 00:10:37;;;;;;;13.95;11.27;;;18.90;93.90;;;;;;5058915;28;20471;-89
2021/06/16 00:13:04;;;;;;;13.63;12.23;;;18.90;94.00;;;;;;5040895;28;20031;-86
2021/06/16 00:15:39;;;;;;;13.93;10.90;;;18.90;93.70;;;;;;5062782;28;20051;-87
2021/06/16 00:18:05;;;;;;;12.15;10.38;;;18.90;93.60;;;;;;5060192;28;20099;-87
2021/06/16 00:20:31;;;;;;;13.10;11.40;;;18.80;93.50;;;;;;5057743;28;20021;-88
2021/06/16 00:22:58;;;;;;;11.63;10.23;;;18.80;93.80;;;;;;5057780;28;20032;-87
2021/06/16 00:25:25;;;;;;;11.05;9.68;;;18.80;93.00;;;;;;5058545;28;20031;-86
2021/06/16 00:27:51;;;;;;;;;;;18.90;92.60;;;;;;5057688;28;20125;-88
2021/06/16 00:30:17;;;;;;;17.25;9.18;;;18.90;92.50;;;;;;5067312;28;19905;-86
2021/06/16 00:32:44;;;;;;;8.98;8.07;;;18.80;92.10;;;;;;5061139;28;20025;-86
2021/06/16 00:35:11;;;;;;;12.95;8.82;;;18.80;91.40;;;;;;5054290;28;20478;-86
2021/06/16 00:37:37;;;;;;;9.25;7.50;;;18.90;91.10;;;;;;5072232;28;20383;-87
2021/06/16 00:40:09;;;;;;;12.50;8.50;;;18.90;90.90;;;;;;5074522;28;20124;-87
2021/06/16 00:42:35;;;;;;;10.13;8.32;;;18.90;90.70;;;;;;5059091;28;20017;-87
2021/06/16 00:45:01;;;;;;;9.38;8.43;;;18.90;90.70;;;;;;5083078;28;20044;-88
2021/06/16 00:47:27;;;;;;;9.48;8.13;;;18.90;90.70;;;;;;5088179;28;20040;-89
2021/06/16 00:49:53;;;;;;;11.77;8.07;;;18.90;90.70;;;;;;5086399;28;20005;-86
2021/06/16 00:52:19;;;;;;;10.40;8.23;;;18.90;90.60;;;;;;5038797;28;20038;-86
2021/06/16 00:54:45;;;;;;;8.48;7.50;;;18.90;90.60;;;;;;5037966;28;20112;-87
2021/06/16 00:57:11;;;;;;;10.65;8.57;;;18.80;90.60;;;;;;5045980;28;20051;-87
2021/06/16 00:59:48;;;;;;;9.90;8.50;;;18.80;90.70;;;;;;5050253;28;20025;-86
2021/06/16 01:02:15;;;;;;;;;;;18.80;90.60;;;;;;5033110;28;20055;-86
2021/06/16 01:04:42;;;;;;;11.95;8.93;;;18.80;90.50;;;;;;5035598;28;19904;-87
2021/06/16 01:07:11;;;;;;;9.20;8.30;;;18.70;90.60;;;;;;5035046;28;20044;-89
2021/06/16 01:09:47;;;;;;;9.00;8.20;;;18.70;90.40;;;;;;5035467;28;20096;-88
2021/06/16 01:12:17;;;;;;;8.38;7.57;;;18.70;90.30;;;;;;5034558;28;20447;-87
2021/06/16 01:15:01;;;;;;;11.27;8.10;;;18.70;90.30;;;;;;5034851;28;20017;-88
2021/06/16 01:17:55;;;;;;;8.27;7.55;;;18.80;90.30;;;;;;5031723;28;20033;-88
2021/06/16 01:20:39;;;;;;;10.10;8.13;;;18.70;90.30;;;;;;5034690;28;20371;-88
2021/06/16 01:23:08;;;;;;;10.88;8.63;;;18.70;90.20;;;;;;5039158;28;20185;-88
2021/06/16 01:25:51;;;;;;;9.48;7.97;;;18.70;90.40;;;;;;5076479;28;20021;-89
2021/06/16 01:28:20;;;;;;;8.73;7.88;;;18.70;90.30;;;;;;5064603;28;20600;-89
2021/06/16 01:30:48;;;;;;;8.85;7.63;;;18.70;90.30;;;;;;5075231;28;20103;-88
2021/06/16 01:33:17;;;;;;;9.82;8.93;;;18.80;90.30;;;;;;5066350;28;20024;-86
2021/06/16 01:35:47;;;;;;;10.38;8.32;;;18.70;90.30;;;;;;5077995;28;20448;-87
2021/06/16 01:38:14;;;;;;;9.68;7.97;;;18.70;90.30;;;;;;5078976;28;20024;-88
2021/06/16 01:40:42;;;;;;;10.15;8.27;;;18.70;90.30;;;;;;5077308;28;20045;-88
2021/06/16 01:43:09;;;;;;;12.45;8.05;;;18.70;90.50;;;;;;5074931;28;20016;-87
2021/06/16 01:45:37;;;;;;;9.17;8.37;;;18.70;90.50;;;;;;5076977;28;20028;-90
2021/06/16 01:48:06;;;;;;;8.70;7.90;;;18.80;90.40;;;;;;5078423;28;20725;-86
2021/06/16 01:50:33;;;;;;;10.32;8.38;;;18.80;90.40;;;;;;5048689;28;20017;-90
2021/06/16 01:53:00;;;;;;;10.80;8.80;;;18.70;90.70;;;;;;5054751;28;20025;-87
2021/06/16 01:55:26;;;;;;;9.73;8.73;;;18.70;90.50;;;;;;5075680;28;20024;-87
2021/06/16 01:57:56;;;;;;;12.25;8.93;;;18.80;90.60;;;;;;5075288;28;20031;-88
2021/06/16 02:00:23;;;;;;;9.80;8.60;;;18.70;90.50;;;;;;5077289;28;20111;-87
2021/06/16 02:02:49;;;;;;;9.98;8.98;;;18.80;90.60;;;;;;5076509;28;20028;-87
2021/06/16 02:05:19;;;;;;;11.55;9.05;;;18.80;90.50;;;;;;5068133;28;20030;-88
2021/06/16 02:07:56;;;;;;;10.50;7.93;;;18.80;90.30;;;;;;5075165;28;20090;-88
2021/06/16 02:10:24;;;;;;;;;;;18.80;90.10;;;;;;5057816;28;20021;-87
2021/06/16 02:12:51;;;;;;;8.77;7.90;;;18.80;90.00;;;;;;5076105;28;19969;-87
2021/06/16 02:15:17;;;;;;;;;;;18.80;90.00;;;;;;5076821;28;20020;-87
2021/06/16 02:17:53;;;;;;;8.63;7.70;;;18.80;90.00;;;;;;5059985;28;19909;-87
2021/06/16 02:20:22;;;;;;;8.65;7.65;;;18.80;89.70;;;;;;5076021;28;20373;-87
2021/06/16 02:22:49;;;;;;;7.75;7.05;;;18.90;89.60;;;;;;5057859;28;20414;-90
2021/06/16 02:25:19;;;;;;;8.55;6.57;;;18.90;89.20;;;;;;5075531;28;20023;-90
2021/06/16 02:27:45;;;;;;;10.73;7.05;;;19.00;89.00;;;;;;5076428;28;20062;-87
2021/06/16 02:30:11;;;;;;;7.32;6.40;;;19.00;88.30;;;;;;5057873;28;20032;-90
2021/06/16 02:32:38;;;;;;;8.77;6.15;;;19.10;88.00;;;;;;5075793;28;20362;-88
2021/06/16 02:35:06;;;;;;;8.23;5.78;;;19.10;87.50;;;;;;5075460;28;20020;-86
2021/06/16 02:37:40;;;;;;;7.03;5.45;;;19.20;87.20;;;;;;5076674;28;20038;-90
2021/06/16 02:40:12;;;;;;;7.40;5.10;;;19.20;85.90;;;;;;5068548;28;20048;-91
2021/06/16 02:42:45;;;;;;;5.55;5.00;;;19.20;85.40;;;;;;5071544;28;20035;-90
2021/06/16 02:45:12;;;;;;;7.88;5.85;;;19.30;84.50;;;;;;5085872;28;20031;-89
2021/06/16 02:47:40;;;;;;;5.55;5.05;;;19.30;84.50;;;;;;5089806;28;20020;-83
2021/06/16 02:50:08;;;;;;;7.35;5.03;;;19.40;84.60;;;;;;5078249;28;20055;-82
2021/06/16 02:52:36;;;;;;;6.72;4.80;;;19.50;84.30;;;;;;5090397;28;20013;-86
2021/06/16 02:55:06;;;;;;;6.72;4.60;;;19.60;83.40;;;;;;5086299;28;20031;-84
2021/06/16 02:57:44;;;;;;;5.18;4.35;;;19.70;83.00;;;;;;5074965;28;20033;-90
2021/06/16 03:00:12;;;;;;;8.32;4.80;;;19.70;81.60;;;;;;5084048;28;20035;-92
2021/06/16 03:02:42;;;;;;;5.85;4.78;;;19.70;81.60;;;;;;5088974;28;20031;-90
2021/06/16 03:05:10;;;;;;;7.75;5.13;;;19.60;82.10;;;;;;5083078;28;20071;-90
2021/06/16 03:07:38;;;;;;;8.32;4.90;;;19.60;82.60;;;;;;5062921;28;20024;-90
2021/06/16 03:10:04;;;;;;;;;;;19.60;82.10;;;;;;5076041;28;20473;-90
2021/06/16 03:12:31;;;;;;;7.03;4.47;;;19.80;82.30;;;;;;5092115;28;19973;-90
2021/06/16 03:14:58;;;;;;;;;;;20.00;81.70;;;;;;5072153;28;20028;-90
2021/06/16 03:17:26;;;;;;;7.65;4.82;;;20.10;80.50;;;;;;5087880;28;19912;-89
2021/06/16 03:19:52;;;;;;;6.32;4.05;;;20.10;80.40;;;;;;5077315;28;20029;-89
2021/06/16 03:22:19;;;;;;;6.93;4.10;;;20.20;79.40;;;;;;5084096;28;20046;-89
2021/06/16 03:24:48;;;;;;;7.03;4.32;;;20.30;79.40;;;;;;5098234;28;20055;-89
2021/06/16 03:27:14;;;;;;;5.97;3.55;;;20.30;79.60;;;;;;5085353;28;20052;-88
2021/06/16 03:29:41;;;;;;;4.43;3.47;;;20.40;77.40;;;;;;5098087;28;20024;-90
2021/06/16 03:32:08;;;;;;;5.90;3.15;;;20.30;78.10;;;;;;5071810;28;20106;-89
2021/06/16 03:34:37;;;;;;;;;;;20.40;77.20;;;;;;5058454;28;20139;-91
2021/06/16 03:37:07;;;;;;;8.52;3.78;;;20.40;77.90;;;;;;5048662;28;19906;-89
2021/06/16 03:39:34;;;;;;;5.45;3.08;;;20.40;77.90;;;;;;5053927;28;20028;-87
2021/06/16 03:42:01;;;;;;;;;;;20.40;76.40;;;;;;5049612;28;20117;-90
2021/06/16 03:44:27;;;;;;;11.27;5.80;;;20.40;76.90;;;;;;5041793;28;19905;-90
2021/06/16 03:46:54;;;;;;;6.00;4.30;;;20.40;77.70;;;;;;5044239;28;20033;-90
2021/06/16 03:49:22;;;;;;;8.02;3.40;;;20.40;77.40;;;;;;5042516;28;20143;-90
2021/06/16 03:51:50;;;;;;;4.40;3.42;;;20.50;77.10;;;;;;5041368;28;20048;-89
2021/06/16 03:54:16;;;;;;;;;;;20.50;75.90;;;;;;5046588;28;20025;-91
2021/06/16 03:56:47;;;;;;;6.13;3.83;;;20.40;77.00;;;;;;5051737;28;19905;-90
2021/06/16 03:59:15;;;;;;;6.05;3.55;;;20.50;77.70;;;;;;5004648;28;20036;-90
2021/06/16 04:01:42;;;;;;;10.25;4.05;;;20.50;77.20;;;;;;5062360;28;20029;-90
2021/06/16 04:04:11;;;;;;;9.25;3.97;;;20.50;76.90;;;;;;5070790;28;20035;-90
2021/06/16 04:06:41;;;;;;;5.68;3.85;;;20.50;77.40;;;;;;5062029;28;20037;-90
2021/06/16 04:09:08;;;;;;;5.18;3.25;;;20.60;77.90;;;;;;5076734;28;20382;-89
2021/06/16 04:11:35;;;;;;;4.20;3.30;;;20.70;76.50;;;;;;5089144;28;20027;-89
2021/06/16 04:14:01;;;;;;;;;;;20.60;76.30;;;;;;5097361;28;20028;-90
2021/06/16 04:16:28;;;;;;;7.80;3.75;;;20.50;76.90;;;;;;5066219;28;19960;-88
2021/06/16 04:18:55;;;;;;;9.30;3.87;;;20.50;76.90;;;;;;5091139;28;20024;-88
2021/06/16 04:21:22;;;;;;;6.95;3.47;;;20.70;76.40;;;;;;5081130;28;20304;-92
2021/06/16 04:23:49;;;;;;;5.45;4.35;;;20.70;76.00;;;;;;5081716;28;20021;-91
2021/06/16 04:26:16;;;;;;;5.18;3.70;;;20.70;77.30;;;;;;5070648;28;20025;-91
2021/06/16 04:28:42;;;;;;;5.18;3.50;;;20.80;76.60;;;;;;5068059;28;20044;-93
2021/06/16 04:31:07;;;;;;;10.00;3.92;;;20.90;75.90;;;;;;5086098;28;20028;-90
2021/06/16 04:33:34;;;;;;;9.95;4.30;;;21.00;76.40;;;;;;5090788;28;20029;-92
2021/06/16 04:36:04;;;;;;;6.05;3.45;;;21.10;75.90;;;;;;5076292;28;20039;-93
2021/06/16 04:38:30;;;;;;;5.03;3.25;;;21.10;75.90;;;;;;5093778;28;20024;-91
2021/06/16 04:40:56;;;;;;;7.10;3.40;;;21.10;74.80;;;;;;5065599;28;20067;-92
2021/06/16 04:43:22;;;;;;;5.38;2.97;;;21.10;74.30;;;;;;5065205;28;20187;-92
2021/06/16 04:45:48;;;;;;;5.25;2.95;;;21.10;74.40;;;;;;5070532;28;20037;-88
2021/06/16 04:48:14;;;;;;;5.22;3.42;;;21.00;74.90;;;;;;5044179;28;20029;-88
2021/06/16 04:50:40;;;;;;;4.07;3.30;;;21.10;76.00;;;;;;5066646;28;20077;-87
2021/06/16 04:53:06;;;;;;;5.75;3.42;;;21.20;75.20;;;;;;5072173;28;20119;-89
2021/06/16 04:55:32;;;;;;;7.32;4.15;;;21.40;74.60;;;;;;5080494;28;20178;-88
2021/06/16 04:57:58;;;;;;;6.05;3.15;;;21.40;74.10;;;;;;5076240;28;20114;-87
2021/06/16 05:00:24;;;;;;;3.60;2.88;;;21.30;73.80;;;;;;5082455;28;20351;-86
2021/06/16 05:02:54;;;;;;;7.43;3.70;;;21.20;74.70;;;;;;5074803;28;20029;-87
2021/06/16 05:05:21;;;;;;;4.50;3.00;;;21.20;74.30;;;;;;5098708;28;20037;-87
2021/06/16 05:07:47;;;;;;;6.43;3.72;;;21.20;75.70;;;;;;5098749;28;20016;-88
2021/06/16 05:10:13;;;;;;;4.10;2.88;;;21.30;75.60;;;;;;5085043;28;20497;-86
2021/06/16 05:12:39;;;;;;;8.57;3.92;;;21.50;73.80;;;;;;5079642;28;20021;-89
2021/06/16 05:15:08;;;;;;;5.80;3.28;;;21.90;73.30;;;;;;5078929;28;20094;-89
2021/06/16 05:17:37;;;;;;;4.65;2.92;;;22.60;70.70;;;;;;5079805;28;20033;-92
2021/06/16 05:20:03;;;;;;;4.78;2.15;;;23.50;69.00;;;;;;5062350;28;20095;-91
2021/06/16 05:22:29;;;;;;;4.30;2.73;;;24.70;65.20;;;;;;5077525;28;20106;-94
2021/06/16 05:24:58;;;;;;;6.13;2.75;;;25.70;60.90;;;;;;5078974;28;20049;-91
2021/06/16 05:27:28;;;;;;;4.65;2.63;;;26.00;58.20;;;;;;5073169;28;20046;-92
2021/06/16 05:29:56;;;;;;;8.60;2.78;;;26.20;57.80;;;;;;5055679;28;20021;-92
2021/06/16 05:32:22;;;;;;;6.68;3.10;;;26.70;57.10;;;;;;5065253;28;20070;-91
2021/06/16 05:34:51;;;;;;;5.03;2.67;;;27.80;55.30;;;;;;5085345;28;20048;-92
2021/06/16 05:37:18;;;;;;;5.78;3.08;;;28.60;52.50;;;;;;5092912;28;20281;-91
2021/06/16 05:39:45;;;;;;;5.00;2.15;;;28.90;50.80;;;;;;5057617;28;20054;-92
2021/06/16 05:42:13;;;;;;;3.78;2.28;;;29.30;50.30;;;;;;5067523;28;20029;-87
2021/06/16 05:44:39;;;;;;;7.95;2.42;;;29.80;49.70;;;;;;5066995;28;20021;-92
2021/06/16 05:47:05;;;;;;;2.40;2.20;;;30.20;47.90;;;;;;5058953;28;20055;-88
2021/06/16 05:49:31;;;;;;;4.90;2.55;;;30.10;47.10;;;;;;5070020;28;20100;-92
2021/06/16 05:51:58;;;;;;;3.03;2.40;;;29.80;46.60;;;;;;5071747;28;20406;-93
2021/06/16 05:54:25;;;;;;;4.03;2.33;;;29.50;47.60;;;;;;5044576;28;20110;-91
2021/06/16 05:56:51;;;;;;;;;;;29.50;47.60;;;;;;5064387;28;20025;-90
2021/06/16 05:59:20;;;;;;;4.07;2.27;;;29.60;47.70;;;;;;5064623;28;19915;-92
2021/06/16 06:01:46;;;;;;;5.13;2.00;;;29.40;46.80;;;;;;5065022;28;20018;-90
2021/06/16 06:04:12;;;;;;;2.78;2.05;;;29.30;47.10;;;;;;5060818;28;20035;-89
2021/06/16 06:06:38;;;;;;;8.30;5.07;;;29.50;47.30;;;;;;5063516;28;20024;-92
2021/06/16 06:09:07;;;;;;;5.77;3.17;;;30.30;47.30;;;;;;5061858;28;20064;-90
2021/06/16 06:11:36;;;;;;;4.18;2.10;;;31.00;46.60;;;;;;5055608;28;20614;-90
2021/06/16 06:14:05;;;;;;;6.07;2.53;;;32.20;44.50;;;;;;5058883;28;20185;-91
2021/06/16 06:16:32;;;;;;;4.60;2.22;;;33.30;41.90;;;;;;5069712;28;20048;-90
2021/06/16 06:18:58;;;;;;;5.63;2.47;;;32.60;41.00;;;;;;5072616;28;20067;-89
2021/06/16 06:21:30;;;;;;;5.18;2.30;;;31.80;42.50;;;;;;5074586;28;20025;-88
2021/06/16 06:23:57;;;;;;;5.05;2.60;;;31.50;43.30;;;;;;5070139;28;20024;-88
2021/06/16 06:26:23;;;;;;;;;;;32.20;43.30;;;;;;5055579;28;20068;-86
2021/06/16 06:28:49;;;;;;;4.20;2.57;;;32.90;44.00;;;;;;5074542;28;19967;-84
2021/06/16 06:31:14;;;;;;;8.33;2.20;;;33.90;40.70;;;;;;5056608;28;20025;-90
2021/06/16 06:33:40;;;;;;;7.07;2.40;;;33.90;40.00;;;;;;5054321;28;20025;-90
2021/06/16 06:36:06;;;;;;;7.17;2.97;;;33.90;39.90;;;;;;5064908;28;20094;-91
2021/06/16 06:38:32;;;;;;;5.13;2.50;;;32.40;40.60;;;;;;5054690;28;20348;-87
2021/06/16 06:40:58;;;;;;;2.80;2.07;;;30.90;42.70;;;;;;5062742;28;182662;-87
2021/06/16 06:43:24;;;;;;;6.93;2.40;;;30.60;44.40;;;;;;5074078;28;20040;-87
2021/06/16 06:45:49;;;;;;;6.53;2.78;;;30.80;43.80;;;;;;5074306;28;20108;-89
2021/06/16 06:48:15;;;;;;;5.40;2.42;;;30.80;44.10;;;;;;5074548;28;20385;-87
2021/06/16 06:50:41;;;;;;;8.67;2.60;;;32.10;43.30;;;;;;5056538;28;20024;-88
2021/06/16 06:53:07;;;;;;;6.10;2.70;;;32.50;41.80;;;;;;5073912;28;20025;-87
2021/06/16 06:55:33;;;;;;;5.67;3.40;;;31.80;41.50;;;;;;5065053;28;20112;-87
2021/06/16 06:57:59;;;;;;;5.63;2.40;;;30.40;42.40;;;;;;5069547;28;20016;-87
2021/06/16 07:00:25;;;;;;;6.65;2.45;;;29.70;44.80;;;;;;5078507;28;20028;-89
2021/06/16 07:02:51;;;;;;;3.47;2.40;;;28.90;46.20;;;;;;5081559;28;20027;-88
2021/06/16 07:05:17;;;;;;;3.15;2.03;;;28.70;46.10;;;;;;5079739;28;20038;-88
2021/06/16 07:07:43;;;;;;;8.55;4.05;;;29.30;46.30;;;;;;5087979;28;20059;-87
2021/06/16 07:10:09;;;;;;;5.38;2.83;;;29.60;45.90;;;;;;5087420;28;20031;-88
2021/06/16 07:12:35;;;;;;;6.50;2.40;;;30.20;44.40;;;;;;5079095;28;20017;-89
2021/06/16 07:15:02;;;;;;;4.13;2.23;;;31.20;42.80;;;;;;5060546;28;20032;-87
2021/06/16 07:17:28;;;;;;;3.22;2.35;;;31.70;41.80;;;;;;5078542;28;20025;-88
2021/06/16 07:19:54;;;;;;;2.87;1.70;;;32.40;39.70;;;;;;5085641;28;20019;-85
2021/06/16 07:22:20;;;;;;;5.47;2.13;;;32.10;38.10;;;;;;5099239;28;20060;-86
2021/06/16 07:24:46;;;;;;;6.60;2.10;;;31.30;39.60;;;;;;5071239;28;20021;-88
2021/06/16 07:27:12;;;;;;;6.10;2.58;;;31.10;40.20;;;;;;5078488;28;20047;-86
2021/06/16 07:29:38;;;;;;;7.00;1.83;;;30.80;40.30;;;;;;5077986;28;20147;-87
2021/06/16 07:32:05;;;;;;;3.45;2.17;;;31.30;40.10;;;;;;5078757;28;20486;-87
2021/06/16 07:34:31;;;;;;;4.97;2.00;;;31.50;38.90;;;;;;5063306;28;20366;-88
2021/06/16 07:36:57;;;;;;;6.28;2.03;;;31.80;39.10;;;;;;5078195;28;20032;-86
2021/06/16 07:39:23;;;;;;;6.17;2.73;;;31.90;37.70;;;;;;5077755;28;20132;-88
2021/06/16 07:41:49;;;;;;;3.90;2.40;;;31.70;38.60;;;;;;5077950;28;20112;-86
2021/06/16 07:44:15;;;;;;;6.75;2.80;;;33.00;37.00;;;;;;5077804;28;20092;-85
2021/06/16 07:46:41;;;;;;;7.07;2.55;;;34.20;35.60;;;;;;5077911;28;20157;-88
2021/06/16 07:49:10;;;;;;;5.10;2.83;;;34.80;35.40;;;;;;5065407;28;20029;-86
2021/06/16 07:51:36;;;;;;;7.90;2.13;;;35.90;33.90;;;;;;5075859;28;20047;-89
2021/06/16 07:54:02;;;;;;;3.20;2.00;;;36.60;33.00;;;;;;5077529;28;20020;-87
2021/06/16 07:56:28;;;;;;;3.83;2.30;;;36.30;33.00;;;;;;5077118;28;20088;-88
2021/06/16 07:58:54;;;;;;;5.68;2.22;;;36.30;33.00;;;;;;5078207;28;20442;-86
2021/06/16 08:01:20;;;;;;;4.25;2.15;;;36.10;33.00;;;;;;5078500;28;20173;-88
2021/06/16 08:03:46;;;;;;;10.93;3.47;;;35.90;33.70;;;;;;5080945;28;20030;-88
2021/06/16 08:06:12;;;;;;;2.83;2.25;;;36.90;33.40;;;;;;5073789;28;20050;-87
2021/06/16 08:08:38;;;;;;;3.90;2.08;;;37.70;31.40;;;;;;5066705;28;20052;-86
2021/06/16 08:11:04;;;;;;;3.83;1.73;;;37.50;29.90;;;;;;5062387;28;20051;-87
2021/06/16 08:13:31;;;;;;;2.75;1.55;;;36.70;30.30;;;;;;5078573;28;20346;-90
2021/06/16 08:15:58;;;;;;;4.80;2.17;;;35.60;30.50;;;;;;5076884;28;20032;-89
2021/06/16 08:18:23;;;;;;;;;;;34.30;32.50;;;;;;5063735;28;20028;-87
2021/06/16 08:20:49;;;;;;;8.23;2.05;;;33.00;33.60;;;;;;5079292;28;19997;-88
2021/06/16 08:23:15;;;;;;;3.47;1.77;;;31.90;35.70;;;;;;5079964;28;20043;-89
2021/06/16 08:25:41;;;;;;;2.67;1.90;;;31.30;36.30;;;;;;5076485;28;20048;-88
2021/06/16 08:28:07;;;;;;;6.90;1.93;;;30.80;37.50;;;;;;5059235;28;20086;-89
2021/06/16 08:30:33;;;;;;;7.17;2.50;;;30.80;38.20;;;;;;5077038;28;20082;-87
2021/06/16 08:33:00;;;;;;;5.00;2.47;;;31.30;38.10;;;;;;5058747;28;20070;-88
2021/06/16 08:35:26;;;;;;;2.97;2.08;;;32.60;37.00;;;;;;5065206;28;20053;-88
2021/06/16 08:37:52;;;;;;;6.90;2.50;;;34.20;34.90;;;;;;5074108;28;20078;-86
2021/06/16 08:40:18;;;;;;;5.45;1.90;;;35.00;33.70;;;;;;5087749;28;20055;-89
2021/06/16 08:42:49;;;;;;;2.58;2.03;;;35.30;32.90;;;;;;5079442;28;20056;-87
2021/06/16 08:45:16;;;;;;;9.25;2.00;;;35.80;32.60;;;;;;5066438;28;20416;-88
2021/06/16 08:47:48;;;;;;;7.70;2.28;;;36.70;31.60;;;;;;5076077;28;20078;-89
2021/06/16 08:50:15;;;;;;;7.18;2.08;;;37.70;30.70;;;;;;5069496;28;20451;-90
2021/06/16 08:52:42;;;;;;;5.82;2.15;;;38.90;30.00;;;;;;5071334;28;20029;-87
2021/06/16 08:55:13;;;;;;;11.27;2.10;;;39.30;29.70;;;;;;5050597;28;20031;-89
2021/06/16 08:57:39;;;;;;;5.22;2.28;;;39.40;29.50;;;;;;5065685;28;20070;-89
2021/06/16 09:00:06;;;;;;;;;;;39.40;29.30;;;;;;5075484;28;20017;-87
2021/06/16 09:02:31;;;;;;;4.25;2.13;;;39.00;30.10;;;;;;5076728;28;20083;-88
2021/06/16 09:04:57;;;;;;;5.55;2.47;;;38.70;29.50;;;;;;5077990;28;20052;-90
2021/06/16 09:07:27;;;;;;;5.80;2.00;;;37.70;30.50;;;;;;5079516;28;20042;-89
2021/06/16 09:10:15;;;;;;;6.70;2.53;;;37.60;30.50;;;;;;5086697;28;20424;-88
2021/06/16 09:12:45;;;;;;;6.65;2.30;;;36.80;30.20;;;;;;5074541;28;20020;-86
2021/06/16 09:15:16;;;;;;;4.05;2.38;;;36.70;30.80;;;;;;5074359;28;20115;-87
2021/06/16 09:17:58;;;;;;;5.60;2.25;;;35.90;30.30;;;;;;5079918;28;20027;-89
2021/06/16 09:20:29;;;;;;;4.30;2.25;;;33.90;32.20;;;;;;5064313;28;20028;-87
2021/06/16 09:23:08;;;;;;;3.53;2.33;;;33.30;33.40;;;;;;5077329;28;20074;-91
2021/06/16 09:25:34;;;;;;;3.65;2.55;;;34.10;32.80;;;;;;5058705;28;20060;-88
2021/06/16 09:28:01;;;;;;;6.60;2.00;;;34.90;31.50;;;;;;5062316;28;20126;-89
2021/06/16 09:30:27;;;;;;;7.50;4.93;;;35.60;31.30;;;;;;5076991;28;20481;-89
2021/06/16 09:33:04;;;;;;;4.80;2.40;;;36.00;31.50;;;;;;5086106;28;20424;-86
2021/06/16 09:35:33;;;;;;;5.85;2.72;;;35.80;31.40;;;;;;5099706;28;20035;-90
2021/06/16 09:38:01;;;;;;;8.23;3.25;;;34.80;31.70;;;;;;5094007;28;20033;-89
2021/06/16 09:40:43;;;;;;;7.90;2.35;;;33.40;32.60;;;;;;5079571;28;20052;-88
2021/06/16 09:43:12;;;;;;;5.00;1.98;;;33.50;33.20;;;;;;5094481;28;20036;-86
2021/06/16 09:45:40;;;;;;;3.97;2.28;;;34.40;32.00;;;;;;5078300;28;20016;-90
2021/06/16 09:48:25;;;;;;;5.05;2.00;;;34.90;31.50;;;;;;5063892;28;20028;-88
2021/06/16 09:51:14;;;;;;;2.47;1.98;;;33.10;31.20;;;;;;5078685;28;20031;-87
2021/06/16 09:53:59;;;;;;;2.67;1.90;;;31.10;33.30;;;;;;5063859;28;20017;-89
2021/06/16 09:56:26;;;;;;;5.30;2.03;;;30.30;34.90;;;;;;5076623;28;20075;-87
2021/06/16 09:58:53;;;;;;;4.10;2.65;;;31.30;33.80;;;;;;5069969;28;20039;-87
2021/06/16 10:01:40;;;;;;;4.03;1.60;;;32.60;33.10;;;;;;5050896;28;20108;-88
2021/06/16 10:04:05;;;;;;;;;;;33.30;31.50;;;;;;5066623;28;20020;-87
2021/06/16 10:06:31;;;;;;;7.47;2.00;;;33.80;32.40;;;;;;5083895;28;19917;-88
2021/06/16 10:09:07;;;;;;;3.70;1.80;;;34.20;30.80;;;;;;5078723;28;20074;-89
2021/06/16 10:11:34;;;;;;;7.20;2.33;;;34.00;31.30;;;;;;5085414;28;20268;-87
2021/06/16 10:14:02;;;;;;;4.57;2.17;;;33.50;31.50;;;;;;5076674;28;20032;-88
2021/06/16 10:16:28;;;;;;;5.97;2.05;;;33.60;31.60;;;;;;5075540;28;20043;-87
2021/06/16 10:18:54;;;;;;;5.68;2.53;;;33.00;30.50;;;;;;5042890;28;20382;-87
2021/06/16 10:21:22;;;;;;;2.60;1.73;;;32.20;32.10;;;;;;5076025;28;20050;-86
2021/06/16 10:23:48;;;;;;;3.78;1.98;;;31.10;32.70;;;;;;5074910;28;20323;-87
2021/06/16 10:26:21;;;;;;;5.70;2.00;;;30.20;33.30;;;;;;5075713;28;20071;-87
2021/06/16 10:29:03;;;;;;;5.60;1.92;;;29.10;33.60;;;;;;5075343;28;20036;-89
2021/06/16 10:31:38;;;;;;;4.15;1.95;;;28.20;34.90;;;;;;5079529;28;20016;-88
2021/06/16 10:34:04;;;;;;;2.65;1.75;;;27.40;36.30;;;;;;5079590;28;20025;-86
2021/06/16 10:36:32;;;;;;;7.07;3.00;;;26.90;37.30;;;;;;5081342;28;20028;-86
2021/06/16 10:38:58;;;;;;;3.40;1.92;;;26.40;37.60;;;;;;5080330;28;20028;-87
2021/06/16 10:41:44;;;;;;;3.53;2.08;;;26.00;38.00;;;;;;5079170;28;20039;-87
2021/06/16 10:44:24;;;;;;;4.68;2.30;;;25.70;38.60;;;;;;5091767;28;20032;-88
2021/06/16 10:47:00;;;;;;;5.07;1.75;;;25.70;39.60;;;;;;5049465;28;20028;-88
2021/06/16 10:49:49;;;;;;;4.13;2.03;;;25.80;38.70;;;;;;5047882;28;20466;-87
2021/06/16 10:52:18;;;;;;;3.78;1.52;;;25.60;38.70;;;;;;5080505;28;20377;-90
2021/06/16 10:55:04;;;;;;;4.55;1.77;;;25.40;38.10;;;;;;5062590;28;20021;-88
2021/06/16 10:57:31;;;;;;;5.90;3.13;;;25.10;37.90;;;;;;5080861;28;20032;-89
2021/06/16 11:00:04;;;;;;;3.55;1.85;;;25.00;38.20;;;;;;5079281;28;20250;-89
2021/06/16 11:02:31;;;;;;;3.38;2.00;;;24.80;38.20;;;;;;5071815;28;20036;-89
2021/06/16 11:05:30;;;;;;;4.60;2.30;;;24.80;39.20;;;;;;5081517;28;20373;-90
2021/06/16 11:07:56;;;;;;;2.47;1.80;;;24.80;39.00;;;;;;5070716;28;20063;-90
2021/06/16 11:10:22;;;;;;;3.35;1.52;;;24.70;38.60;;;;;;5081713;28;20028;-90
2021/06/16 11:12:53;;;;;;;6.85;1.98;;;24.60;37.40;;;;;;5086811;28;20085;-89
2021/06/16 11:15:25;;;;;;;6.57;1.80;;;24.60;37.00;;;;;;5067882;28;20024;-87
2021/06/16 11:17:57;;;;;;;3.83;1.80;;;24.50;37.10;;;;;;5043760;28;20021;-87
2021/06/16 11:20:24;;;;;;;4.05;1.77;;;24.30;37.40;;;;;;5078430;28;20086;-88
2021/06/16 11:23:01;;;;;;;3.55;1.92;;;24.30;37.60;;;;;;5083233;28;20065;-90
2021/06/16 11:25:37;;;;;;;4.40;2.03;;;24.30;37.80;;;;;;5082387;28;20020;-89
2021/06/16 11:28:16;;;;;;;2.72;1.55;;;24.30;38.20;;;;;;5061770;28;20064;-87
2021/06/16 11:30:54;;;;;;;4.22;1.88;;;24.20;37.80;;;;;;5077248;28;20048;-88
2021/06/16 11:33:20;;;;;;;4.57;1.70;;;24.10;38.50;;;;;;5077949;28;20039;-86
2021/06/16 11:35:52;;;;;;;7.10;1.60;;;24.00;39.50;;;;;;5077480;28;20027;-87
2021/06/16 11:38:18;;;;;;;2.53;1.48;;;24.10;39.40;;;;;;5057995;28;20024;-86
2021/06/16 11:41:16;;;;;;;3.97;1.40;;;24.10;39.20;;;;;;5052256;28;20203;-88
2021/06/16 11:43:52;;;;;;;4.35;1.70;;;24.00;39.40;;;;;;5071728;28;20020;-88
2021/06/16 11:46:36;;;;;;;3.90;2.00;;;24.00;39.80;;;;;;5077829;28;20517;-88
2021/06/16 11:49:20;;;;;;;5.07;1.80;;;24.00;40.50;;;;;;5078440;28;20119;-88
2021/06/16 11:51:57;;;;;;;4.82;1.60;;;24.10;40.00;;;;;;5065898;28;20021;-88
2021/06/16 11:54:24;;;;;;;3.17;1.10;;;24.10;39.50;;;;;;5088085;28;20024;-88
2021/06/16 11:57:00;;;;;;;;;;;24.00;38.80;;;;;;5117784;28;20042;-89
2021/06/16 11:59:31;;;;;;;6.13;1.77;;;24.00;39.30;;;;;;5103059;28;19904;-87
2021/06/16 12:02:32;;;;;;;2.35;1.30;;;24.00;40.50;;;;;;5083337;28;20264;-87
2021/06/16 12:05:05;;;;;;;4.03;1.60;;;24.00;40.10;;;;;;5004769;28;20099;-86
2021/06/16 12:07:54;;;;;;;2.47;1.40;;;23.90;39.80;;;;;;4999734;28;20042;-91
2021/06/16 12:10:21;;;;;;;2.17;1.80;;;24.00;40.00;;;;;;5001775;28;20034;-89
2021/06/16 12:12:48;;;;;;;6.07;1.92;;;24.00;39.10;;;;;;5018585;28;20025;-89
2021/06/16 12:15:22;;;;;;;4.30;2.05;;;24.00;39.50;;;;;;5015135;28;20104;-87
2021/06/16 12:18:06;;;;;;;3.45;1.65;;;24.10;38.50;;;;;;4995093;28;20030;-88
2021/06/16 12:20:39;;;;;;;4.95;2.25;;;24.10;38.20;;;;;;5010030;28;20085;-86
2021/06/16 12:23:43;;;;;;;5.45;1.42;;;24.00;39.00;;;;;;5002714;28;20072;-86
2021/06/16 12:26:20;;;;;;;3.67;1.88;;;24.10;38.50;;;;;;4985698;28;20117;-86
2021/06/16 12:28:52;;;;;;;6.30;2.38;;;24.10;39.10;;;;;;5014554;28;20482;-86
2021/06/16 12:31:31;;;;;;;4.70;1.67;;;24.20;38.40;;;;;;5014811;28;20483;-87
2021/06/16 12:36:25;;;;;;;5.78;1.98;;;24.20;38.30;;;;;;5014789;28;20140;-86
2021/06/16 12:38:58;;;;;;;4.85;1.90;;;24.20;39.00;;;;;;5015335;28;20042;-86
2021/06/16 12:41:38;;;;;;;3.45;1.60;;;24.30;38.30;;;;;;5034932;28;20021;-87
2021/06/16 12:44:13;;;;;;;3.95;1.73;;;24.30;38.20;;;;;;5058718;28;20032;-88
2021/06/16 12:46:52;;;;;;;6.28;2.25;;;24.20;37.60;;;;;;5075949;28;20620;-86
2021/06/16 12:49:18;;;;;;;2.95;1.30;;;24.30;38.80;;;;;;5075784;28;20043;-86
2021/06/16 12:51:52;;;;;;;6.28;1.50;;;24.40;38.10;;;;;;5090441;28;20120;-86
2021/06/16 12:54:32;;;;;;;5.72;1.65;;;24.30;38.30;;;;;;5075817;28;20025;-87
2021/06/16 12:57:13;;;;;;;3.25;1.67;;;24.20;37.90;;;;;;5061680;28;20032;-86
2021/06/16 12:59:46;;;;;;;5.93;1.55;;;24.10;39.10;;;;;;5076681;28;20021;-87
2021/06/16 13:02:22;;;;;;;4.40;1.20;;;24.10;38.30;;;;;;5075690;28;20024;-86
2021/06/16 13:04:58;;;;;;;6.78;1.35;;;24.00;37.90;;;;;;5062857;28;20013;-86